Time;durP1;ratioP1;P1;durP2;ratioP2;P2;SDS_P1;SDS_P2;PMS_P1;PMS_P2;Temp;Humidity;BMP_temperature;BMP_pressure;BME280_temperature;BME280_humidity;BME280_pressure;Samples;Min_cycle;Max_cycle;Signal;HPM_P1;HPM_P2
2022/11/25 00:00:20;;;;;;;1.70;1.60;;;;;;;;;;4993591;28;20247;-84
2022/11/25 00:02:48;;;;;;;2.05;1.52;;;;;;;;;;4994053;28;20676;-84
2022/11/25 00:05:17;;;;;;;2.20;1.60;;;;;;;;;;4993771;28;20744;-83
2022/11/25 00:07:44;;;;;;;1.90;1.80;;;;;;;;;;4993884;28;20334;-84
2022/11/25 00:10:12;;;;;;;1.60;1.33;;;;;;;;;;4993486;28;20274;-84
2022/11/25 00:12:39;;;;;;;1.55;1.45;;;;;;;;;;5012991;28;20249;-85
2022/11/25 00:15:08;;;;;;;2.88;1.70;;;;;;;;;;5013125;28;20282;-85
2022/11/25 00:17:35;;;;;;;2.95;2.45;;;;;;;;;;5013820;28;20202;-85
2022/11/25 00:20:05;;;;;;;3.63;1.80;;;;;;;;;;5012922;28;20246;-84
2022/11/25 00:22:33;;;;;;;1.85;1.70;;;;;;;;;;5013766;28;20575;-84
2022/11/25 00:25:01;;;;;;;2.10;1.67;;;;;;;;;;5013495;28;20230;-85
2022/11/25 00:27:29;;;;;;;2.28;2.08;;;;;;;;;;5013212;28;20322;-86
2022/11/25 00:29:56;;;;;;;2.78;2.13;;;;;;;;;;5013767;28;20262;-83
2022/11/25 00:32:24;;;;;;;3.15;2.10;;;;;;;;;;5014055;28;20285;-85
2022/11/25 00:34:51;;;;;;;2.92;2.63;;;;;;;;;;5013223;28;20298;-86
2022/11/25 00:37:19;;;;;;;4.78;2.72;;;;;;;;;;5016962;28;20253;-86
2022/11/25 00:39:47;;;;;;;2.58;2.33;;;;;;;;;;5016638;28;20288;-86
2022/11/25 00:45:00;;;;;;;3.72;3.17;;;;;;;;;;5017149;28;20284;-85
2022/11/25 00:47:28;;;;;;;2.40;2.03;;;;;;;;;;5017079;28;20225;-86
2022/11/25 00:49:55;;;;;;;1.77;1.67;;;;;;;;;;5017555;28;20219;-86
2022/11/25 00:52:26;;;;;;;2.67;1.90;;;;;;;;;;5018085;28;20265;-84
2022/11/25 00:54:55;;;;;;;4.93;2.58;;;;;;;;;;5018156;28;20199;-86
2022/11/25 00:57:24;;;;;;;4.45;2.00;;;;;;;;;;5017018;28;20205;-86
2022/11/25 00:59:51;;;;;;;4.22;2.55;;;;;;;;;;5017945;28;20309;-85
2022/11/25 01:02:20;;;;;;;2.13;1.92;;;;;;;;;;5018771;28;20288;-85
2022/11/25 01:04:48;;;;;;;3.45;2.30;;;;;;;;;;5021838;28;20242;-87
2022/11/25 01:07:16;;;;;;;5.85;2.80;;;;;;;;;;5020457;28;20227;-83
2022/11/25 01:09:43;;;;;;;5.80;2.78;;;;;;;;;;5021476;28;20313;-85
2022/11/25 01:12:12;;;;;;;3.40;1.80;;;;;;;;;;5021521;28;20293;-85
2022/11/25 01:14:40;;;;;;;3.63;1.70;;;;;;;;;;5020992;28;20234;-86
2022/11/25 01:17:08;;;;;;;3.30;2.10;;;;;;;;;;5020186;28;20782;-85
2022/11/25 01:19:39;;;;;;;5.75;1.98;;;;;;;;;;5020116;28;20242;-86
2022/11/25 01:22:07;;;;;;;3.58;2.00;;;;;;;;;;5021405;28;20199;-86
2022/11/25 01:24:34;;;;;;;5.85;2.38;;;;;;;;;;5020643;28;20199;-84
2022/11/25 01:27:02;;;;;;;3.90;2.30;;;;;;;;;;5021173;28;20265;-84
2022/11/25 01:29:31;;;;;;;2.60;1.95;;;;;;;;;;5028774;28;20202;-86
2022/11/25 01:31:58;;;;;;;3.10;2.00;;;;;;;;;;5040112;28;20226;-84
2022/11/25 01:34:30;;;;;;;2.38;2.13;;;;;;;;;;5041027;28;20292;-86
2022/11/25 01:36:58;;;;;;;3.55;2.20;;;;;;;;;;5040619;28;20373;-85
2022/11/25 01:39:26;;;;;;;5.90;2.17;;;;;;;;;;5039597;28;20210;-84
2022/11/25 01:41:54;;;;;;;4.10;2.25;;;;;;;;;;5025399;28;20230;-85
2022/11/25 01:44:24;;;;;;;3.92;2.60;;;;;;;;;;5018850;28;20214;-86
2022/11/25 01:47:05;;;;;;;5.88;2.53;;;;;;;;;;5019154;28;20210;-86
2022/11/25 01:49:38;;;;;;;2.95;2.20;;;;;;;;;;5018769;28;20233;-84
2022/11/25 01:52:14;;;;;;;4.25;3.03;;;;;;;;;;5018426;28;20188;-86
2022/11/25 01:54:47;;;;;;;6.38;2.45;;;;;;;;;;5018601;28;20626;-85
2022/11/25 01:57:20;;;;;;;8.27;3.08;;;;;;;;;;5019311;28;20191;-85
2022/11/25 01:59:52;;;;;;;4.82;2.05;;;;;;;;;;5018355;28;20709;-85
2022/11/25 02:02:21;;;;;;;4.05;2.30;;;;;;;;;;5019417;28;20210;-85
2022/11/25 02:04:49;;;;;;;2.10;1.55;;;;;;;;;;5019213;28;20315;-85
2022/11/25 02:07:25;;;;;;;4.80;1.90;;;;;;;;;;5020133;28;20202;-84
2022/11/25 02:09:53;;;;;;;2.45;1.80;;;;;;;;;;5018419;28;20223;-88
2022/11/25 02:12:21;;;;;;;5.22;2.33;;;;;;;;;;5017410;28;20302;-88
2022/11/25 02:14:50;;;;;;;3.28;1.80;;;;;;;;;;5016668;28;20248;-87
2022/11/25 02:17:17;;;;;;;2.78;1.92;;;;;;;;;;5018543;28;20238;-86
2022/11/25 02:19:58;;;;;;;4.30;2.70;;;;;;;;;;5018527;28;20254;-88
2022/11/25 02:22:32;;;;;;;7.55;2.83;;;;;;;;;;5018656;28;20194;-88
2022/11/25 02:25:11;;;;;;;3.35;2.22;;;;;;;;;;5018407;28;20277;-86
2022/11/25 02:27:39;;;;;;;5.50;2.65;;;;;;;;;;5017461;28;20266;-88
2022/11/25 02:30:08;;;;;;;5.90;2.70;;;;;;;;;;5017681;28;20258;-87
2022/11/25 02:32:35;;;;;;;4.28;2.50;;;;;;;;;;5017074;28;20290;-87
2022/11/25 02:35:18;;;;;;;7.38;2.28;;;;;;;;;;5017809;28;20198;-88
2022/11/25 02:37:45;;;;;;;6.00;2.63;;;;;;;;;;5020915;28;20631;-85
2022/11/25 02:40:16;;;;;;;5.40;2.90;;;;;;;;;;5019197;28;20258;-88
2022/11/25 02:42:44;;;;;;;2.72;2.45;;;;;;;;;;5017871;28;20198;-87
2022/11/25 02:45:13;;;;;;;3.97;2.17;;;;;;;;;;5018328;28;20214;-88
2022/11/25 02:47:40;;;;;;;3.25;1.98;;;;;;;;;;5018251;28;20269;-88
2022/11/25 02:50:09;;;;;;;3.78;2.28;;;;;;;;;;5017728;28;20369;-88
2022/11/25 02:52:36;;;;;;;2.20;1.70;;;;;;;;;;5017501;28;20321;-88
2022/11/25 02:55:04;;;;;;;3.65;2.35;;;;;;;;;;5017926;28;20290;-88
2022/11/25 02:57:33;;;;;;;3.63;2.33;;;;;;;;;;5017336;28;20243;-88
2022/11/25 03:00:01;;;;;;;8.68;2.70;;;;;;;;;;5017880;28;20219;-86
2022/11/25 03:02:28;;;;;;;5.20;2.75;;;;;;;;;;5016941;28;20267;-84
2022/11/25 03:04:56;;;;;;;5.45;2.67;;;;;;;;;;5017276;28;20199;-86
2022/11/25 03:07:23;;;;;;;4.03;2.40;;;;;;;;;;5016855;28;20230;-86
2022/11/25 03:09:51;;;;;;;3.65;2.47;;;;;;;;;;5016070;28;20312;-85
2022/11/25 03:12:19;;;;;;;3.22;2.03;;;;;;;;;;5016563;28;20234;-85
2022/11/25 03:14:48;;;;;;;5.93;3.03;;;;;;;;;;5016931;28;20682;-86
2022/11/25 03:17:15;;;;;;;3.90;2.47;;;;;;;;;;5018116;28;20720;-87
2022/11/25 03:19:43;;;;;;;4.57;2.50;;;;;;;;;;5017319;28;20691;-86
2022/11/25 03:22:10;;;;;;;5.18;2.25;;;;;;;;;;5018038;28;20230;-85
2022/11/25 03:24:38;;;;;;;4.50;2.13;;;;;;;;;;5017411;28;20234;-87
2022/11/25 03:27:05;;;;;;;6.97;2.15;;;;;;;;;;5017423;28;20632;-84
2022/11/25 03:29:33;;;;;;;4.90;2.50;;;;;;;;;;5017705;28;20738;-85
2022/11/25 03:32:02;;;;;;;2.88;2.10;;;;;;;;;;5017058;28;20199;-83
2022/11/25 03:34:30;;;;;;;2.85;2.45;;;;;;;;;;5017535;28;20680;-86
2022/11/25 03:36:57;;;;;;;2.67;2.15;;;;;;;;;;5017149;28;20235;-84
2022/11/25 03:39:25;;;;;;;5.63;2.22;;;;;;;;;;5017246;28;20282;-86
2022/11/25 03:41:52;;;;;;;6.32;3.22;;;;;;;;;;5020820;28;20242;-86
2022/11/25 03:44:20;;;;;;;3.80;2.38;;;;;;;;;;5020762;28;20238;-86
2022/11/25 03:46:47;;;;;;;3.40;2.33;;;;;;;;;;5021786;28;20250;-86
2022/11/25 03:49:16;;;;;;;5.60;2.10;;;;;;;;;;5021259;28;20310;-86
2022/11/25 03:51:44;;;;;;;6.60;2.20;;;;;;;;;;5021101;28;20227;-87
2022/11/25 03:54:11;;;;;;;3.78;2.08;;;;;;;;;;5021492;28;20187;-86
2022/11/25 03:56:39;;;;;;;3.83;2.20;;;;;;;;;;5022884;28;20254;-87
2022/11/25 03:59:06;;;;;;;3.33;2.63;;;;;;;;;;5021175;28;20238;-89
2022/11/25 04:01:34;;;;;;;2.78;2.10;;;;;;;;;;5021179;28;20231;-87
2022/11/25 04:04:01;;;;;;;2.85;2.08;;;;;;;;;;5020270;28;20264;-88
2022/11/25 04:06:31;;;;;;;6.28;2.20;;;;;;;;;;5020499;28;20307;-88
2022/11/25 04:08:58;;;;;;;2.65;1.95;;;;;;;;;;5020916;28;20226;-87
2022/11/25 04:12:45;;;;;;;4.93;2.15;;;;;;;;;;5008353;28;20751;-85
2022/11/25 04:14:13;;;;;;;3.20;2.50;;;;;;;;;;4997800;28;20211;-87
2022/11/25 04:16:41;;;;;;;3.40;2.15;;;;;;;;;;4997085;28;20207;-85
2022/11/25 04:19:08;;;;;;;3.03;2.63;;;;;;;;;;4998086;28;20298;-86
2022/11/25 04:21:37;;;;;;;2.55;2.05;;;;;;;;;;4998149;28;20299;-86
2022/11/25 04:24:05;;;;;;;3.65;2.22;;;;;;;;;;4998014;28;20239;-86
2022/11/25 04:26:33;;;;;;;2.67;1.80;;;;;;;;;;4998318;28;20287;-87
2022/11/25 04:29:00;;;;;;;4.43;2.60;;;;;;;;;;4997806;28;20230;-84
2022/11/25 04:31:28;;;;;;;5.22;2.50;;;;;;;;;;4997848;28;20227;-86
2022/11/25 04:33:55;;;;;;;5.43;2.50;;;;;;;;;;4997338;28;20295;-86
2022/11/25 04:36:23;;;;;;;3.47;2.13;;;;;;;;;;4998648;28;20655;-86
2022/11/25 04:38:52;;;;;;;3.25;2.60;;;;;;;;;;5002000;28;20262;-85
2022/11/25 04:41:19;;;;;;;4.10;2.25;;;;;;;;;;5010394;28;20255;-87
2022/11/25 04:43:47;;;;;;;4.45;2.60;;;;;;;;;;5021238;28;20639;-86
2022/11/25 04:46:16;;;;;;;3.78;2.42;;;;;;;;;;5022242;28;20610;-86
2022/11/25 04:48:43;;;;;;;3.35;2.38;;;;;;;;;;5021177;28;20237;-85
2022/11/25 04:51:11;;;;;;;3.25;2.63;;;;;;;;;;5021486;28;20285;-84
2022/11/25 04:53:38;;;;;;;6.63;2.45;;;;;;;;;;5021426;28;20266;-84
2022/11/25 04:56:09;;;;;;;4.32;2.72;;;;;;;;;;5021340;28;20262;-86
2022/11/25 05:01:21;;;;;;;5.43;3.10;;;;;;;;;;5022052;28;20218;-84
2022/11/25 05:03:49;;;;;;;6.03;2.85;;;;;;;;;;5021613;28;20222;-84
2022/11/25 05:06:18;;;;;;;5.97;3.05;;;;;;;;;;5021921;28;20238;-86
2022/11/25 05:08:48;;;;;;;6.00;2.42;;;;;;;;;;5019986;28;20217;-87
2022/11/25 05:11:17;;;;;;;9.23;3.47;;;;;;;;;;5012180;28;20314;-86
2022/11/25 05:13:44;;;;;;;9.27;3.10;;;;;;;;;;5001426;28;20204;-87
2022/11/25 05:16:12;;;;;;;8.02;3.67;;;;;;;;;;5001746;28;20207;-87
2022/11/25 05:18:40;;;;;;;5.85;2.65;;;;;;;;;;5001528;28;20206;-86
2022/11/25 05:21:07;;;;;;;4.90;2.63;;;;;;;;;;5000808;28;20306;-84
2022/11/25 05:23:35;;;;;;;4.38;2.78;;;;;;;;;;5001632;28;20298;-86
2022/11/25 05:26:04;;;;;;;4.55;2.22;;;;;;;;;;5001489;28;20231;-84
2022/11/25 05:28:32;;;;;;;6.25;3.97;;;;;;;;;;5001516;28;20188;-87
2022/11/25 05:31:00;;;;;;;4.07;2.65;;;;;;;;;;5001139;28;20310;-86
2022/11/25 05:33:28;;;;;;;4.03;2.40;;;;;;;;;;5000936;28;20733;-87
2022/11/25 05:35:57;;;;;;;4.97;3.15;;;;;;;;;;5001061;28;20231;-87
2022/11/25 05:38:25;;;;;;;4.60;2.45;;;;;;;;;;5000703;28;20267;-85
2022/11/25 05:40:53;;;;;;;4.13;2.38;;;;;;;;;;5006890;28;20358;-86
2022/11/25 05:43:21;;;;;;;5.82;3.08;;;;;;;;;;5020519;28;20235;-86
2022/11/25 05:45:50;;;;;;;5.97;2.53;;;;;;;;;;5021671;28;20710;-86
2022/11/25 05:48:17;;;;;;;6.65;2.70;;;;;;;;;;5020313;28;20234;-86
2022/11/25 05:50:45;;;;;;;3.95;2.47;;;;;;;;;;5020285;28;20319;-87
2022/11/25 05:53:13;;;;;;;6.07;2.95;;;;;;;;;;5020563;28;20217;-86
2022/11/25 05:55:40;;;;;;;4.22;2.40;;;;;;;;;;5021546;28;20847;-85
2022/11/25 05:58:08;;;;;;;6.75;2.42;;;;;;;;;;5019399;28;20258;-84
2022/11/25 06:00:37;;;;;;;9.52;3.60;;;;;;;;;;5019085;28;20301;-89
2022/11/25 06:03:06;;;;;;;3.70;2.35;;;;;;;;;;5018769;28;20337;-87
2022/11/25 06:05:35;;;;;;;3.08;2.40;;;;;;;;;;5022033;28;20290;-85
2022/11/25 06:08:03;;;;;;;5.00;2.33;;;;;;;;;;5021963;28;20210;-84
2022/11/25 06:10:30;;;;;;;2.50;1.92;;;;;;;;;;5021070;28;20250;-86
2022/11/25 06:12:58;;;;;;;5.22;2.20;;;;;;;;;;5020244;28;20716;-86
2022/11/25 06:15:25;;;;;;;4.50;2.20;;;;;;;;;;5020557;28;20254;-85
2022/11/25 06:17:53;;;;;;;2.80;1.85;;;;;;;;;;5020260;28;20234;-85
2022/11/25 06:20:22;;;;;;;3.72;1.85;;;;;;;;;;5020690;28;20258;-87
2022/11/25 06:22:49;;;;;;;4.03;1.90;;;;;;;;;;5021182;28;20241;-86
2022/11/25 06:25:17;;;;;;;2.42;1.70;;;;;;;;;;5021915;28;20273;-85
2022/11/25 06:27:44;;;;;;;7.10;2.53;;;;;;;;;;5020153;28;20294;-85
2022/11/25 06:30:13;;;;;;;2.95;1.90;;;;;;;;;;5020769;28;20215;-87
2022/11/25 06:32:41;;;;;;;4.18;2.97;;;;;;;;;;5020806;28;20699;-87
2022/11/25 06:35:08;;;;;;;4.90;2.15;;;;;;;;;;5020319;28;20630;-87
2022/11/25 06:37:38;;;;;;;2.20;1.90;;;;;;;;;;5016930;28;20213;-84
2022/11/25 06:40:07;;;;;;;5.13;2.20;;;;;;;;;;5015069;28;20323;-84
2022/11/25 06:42:34;;;;;;;4.53;2.70;;;;;;;;;;5015254;28;20342;-85
2022/11/25 06:45:02;;;;;;;3.80;2.10;;;;;;;;;;5014688;28;20221;-86
2022/11/25 06:47:29;;;;;;;5.38;2.50;;;;;;;;;;5014683;28;20286;-87
2022/11/25 06:49:57;;;;;;;3.20;2.90;;;;;;;;;;5014574;28;20254;-85
2022/11/25 06:52:24;;;;;;;4.22;2.33;;;;;;;;;;5014741;28;20362;-83
2022/11/25 06:54:53;;;;;;;2.97;1.50;;;;;;;;;;5014482;28;20202;-85
2022/11/25 06:57:21;;;;;;;3.50;2.28;;;;;;;;;;5013997;28;20199;-86
2022/11/25 06:59:50;;;;;;;2.67;1.63;;;;;;;;;;5013517;28;20223;-85
2022/11/25 07:02:17;;;;;;;3.53;1.70;;;;;;;;;;5014686;28;20294;-84
2022/11/25 07:04:45;;;;;;;6.03;2.50;;;;;;;;;;5014549;28;20345;-85
2022/11/25 07:07:12;;;;;;;2.63;1.80;;;;;;;;;;5014403;28;20346;-84
2022/11/25 07:09:40;;;;;;;8.68;3.17;;;;;;;;;;5014219;28;20298;-87
2022/11/25 07:12:11;;;;;;;2.75;1.83;;;;;;;;;;4998998;28;20315;-87
2022/11/25 07:14:38;;;;;;;3.83;1.85;;;;;;;;;;4995631;28;20262;-85
2022/11/25 07:17:06;;;;;;;5.47;1.85;;;;;;;;;;4995735;28;20618;-85
2022/11/25 07:19:34;;;;;;;5.53;1.77;;;;;;;;;;4994718;28;20732;-85
2022/11/25 07:22:02;;;;;;;2.47;2.10;;;;;;;;;;4995562;28;20239;-85
2022/11/25 07:24:30;;;;;;;3.08;1.83;;;;;;;;;;4995441;28;20203;-87
2022/11/25 07:26:57;;;;;;;3.88;2.25;;;;;;;;;;4994504;28;20254;-86
2022/11/25 07:29:26;;;;;;;1.73;1.40;;;;;;;;;;4994474;28;20295;-84
2022/11/25 07:31:54;;;;;;;3.88;1.70;;;;;;;;;;4994406;28;20590;-83
2022/11/25 07:34:22;;;;;;;4.07;1.70;;;;;;;;;;4994692;28;20295;-83
2022/11/25 07:36:50;;;;;;;4.43;1.92;;;;;;;;;;4994139;28;20656;-84
2022/11/25 07:39:20;;;;;;;3.55;1.90;;;;;;;;;;4994366;28;20361;-84
2022/11/25 07:41:52;;;;;;;2.20;1.77;;;;;;;;;;5013349;28;20691;-85
2022/11/25 07:44:20;;;;;;;3.40;1.80;;;;;;;;;;5013636;28;20322;-85
2022/11/25 07:46:50;;;;;;;2.75;1.75;;;;;;;;;;5013508;28;20338;-85
2022/11/25 07:49:20;;;;;;;2.58;1.63;;;;;;;;;;5013691;28;20289;-84
2022/11/25 07:51:52;;;;;;;2.45;1.65;;;;;;;;;;5013249;28;20313;-86
2022/11/25 07:54:19;;;;;;;3.90;1.90;;;;;;;;;;5013683;28;20241;-86
2022/11/25 07:56:47;;;;;;;3.55;3.25;;;;;;;;;;5014036;28;20293;-86
2022/11/25 07:59:17;;;;;;;3.03;1.75;;;;;;;;;;5013225;28;20214;-86
2022/11/25 08:01:45;;;;;;;2.78;1.80;;;;;;;;;;5013720;28;20314;-87
2022/11/25 08:04:15;;;;;;;3.80;2.22;;;;;;;;;;5013400;28;20226;-86
2022/11/25 08:06:44;;;;;;;4.75;1.75;;;;;;;;;;5013351;28;20211;-87
2022/11/25 08:09:17;;;;;;;3.45;1.65;;;;;;;;;;5013172;28;20632;-88
2022/11/25 08:11:45;;;;;;;4.63;1.58;;;;;;;;;;5013952;28;20227;-86
2022/11/25 08:14:12;;;;;;;2.47;2.00;;;;;;;;;;5017737;28;20356;-84
2022/11/25 08:16:40;;;;;;;2.83;1.75;;;;;;;;;;5017884;28;20230;-86
2022/11/25 08:19:12;;;;;;;5.40;1.95;;;;;;;;;;5017139;28;20225;-86
2022/11/25 08:21:41;;;;;;;2.72;1.73;;;;;;;;;;5017534;28;20219;-86
2022/11/25 08:24:10;;;;;;;2.70;1.60;;;;;;;;;;5017122;28;20217;-85
2022/11/25 08:26:38;;;;;;;4.80;1.92;;;;;;;;;;5017122;28;20236;-86
2022/11/25 08:29:08;;;;;;;5.50;1.92;;;;;;;;;;5016649;28;20218;-86
2022/11/25 08:31:37;;;;;;;4.07;1.85;;;;;;;;;;5018133;28;20249;-85
2022/11/25 08:34:06;;;;;;;4.45;2.10;;;;;;;;;;5020238;28;20344;-85
2022/11/25 08:36:35;;;;;;;3.15;1.52;;;;;;;;;;5028431;28;20286;-84
2022/11/25 08:39:07;;;;;;;5.60;2.20;;;;;;;;;;5036380;28;20288;-86
2022/11/25 08:41:37;;;;;;;3.28;1.52;;;;;;;;;;5036327;28;20221;-86
2022/11/25 08:44:08;;;;;;;2.97;1.60;;;;;;;;;;5036864;28;20206;-86
2022/11/25 08:46:38;;;;;;;4.45;1.52;;;;;;;;;;5036602;28;20241;-85
2022/11/25 08:49:08;;;;;;;1.50;1.40;;;;;;;;;;5036725;28;20563;-85
2022/11/25 08:51:37;;;;;;;1.90;1.40;;;;;;;;;;5036339;28;20226;-85
2022/11/25 08:54:07;;;;;;;2.83;1.83;;;;;;;;;;5037322;28;20285;-86
2022/11/25 08:56:35;;;;;;;3.13;1.45;;;;;;;;;;5037476;28;20206;-86
2022/11/25 08:59:03;;;;;;;3.78;1.85;;;;;;;;;;5037334;28;20285;-85
2022/11/25 09:01:30;;;;;;;2.13;1.70;;;;;;;;;;5035958;28;20360;-85
2022/11/25 09:03:58;;;;;;;2.97;1.67;;;;;;;;;;5032357;28;20652;-85
2022/11/25 09:06:27;;;;;;;1.55;1.45;;;;;;;;;;5017440;28;20711;-85
2022/11/25 09:08:56;;;;;;;1.65;1.40;;;;;;;;;;5016779;28;20205;-85
2022/11/25 09:11:26;;;;;;;3.30;1.60;;;;;;;;;;5016955;28;20703;-85
2022/11/25 09:13:53;;;;;;;4.22;1.92;;;;;;;;;;5016009;28;20310;-84
2022/11/25 09:16:21;;;;;;;2.90;1.40;;;;;;;;;;5016577;28;20214;-86
2022/11/25 09:18:49;;;;;;;4.85;1.65;;;;;;;;;;5016018;28;20290;-86
2022/11/25 09:21:18;;;;;;;3.00;1.45;;;;;;;;;;5017275;28;20281;-85
2022/11/25 09:23:49;;;;;;;2.72;1.40;;;;;;;;;;5017546;28;20573;-86
2022/11/25 09:26:22;;;;;;;3.85;1.80;;;;;;;;;;5017622;28;20368;-86
2022/11/25 09:28:51;;;;;;;2.67;1.40;;;;;;;;;;5018101;28;20663;-85
2022/11/25 09:31:20;;;;;;;1.40;1.08;;;;;;;;;;5017003;28;20254;-85
2022/11/25 09:33:47;;;;;;;3.33;1.67;;;;;;;;;;5016766;28;20747;-86
2022/11/25 09:36:18;;;;;;;3.00;1.83;;;;;;;;;;5017141;28;20293;-85
2022/11/25 09:38:46;;;;;;;2.92;1.70;;;;;;;;;;5017762;28;20183;-86
2022/11/25 09:47:51;;;;;;;3.42;1.80;;;;;;;;;;4978225;28;20637;-86
2022/11/25 09:50:42;;;;;;;2.58;1.77;;;;;;;;;;4975271;28;20248;-86
2022/11/25 09:53:22;;;;;;;2.80;1.75;;;;;;;;;;4988269;28;20247;-85
2022/11/25 09:55:51;;;;;;;2.92;2.28;;;;;;;;;;4998526;28;20220;-88
2022/11/25 09:58:29;;;;;;;2.17;1.38;;;;;;;;;;4996623;28;20227;-87
2022/11/25 10:01:04;;;;;;;1.75;1.52;;;;;;;;;;4996567;28;20223;-86
2022/11/25 10:03:40;;;;;;;5.38;2.05;;;;;;;;;;4997135;28;20238;-87
2022/11/25 10:06:11;;;;;;;4.93;1.73;;;;;;;;;;4996014;28;20247;-86
2022/11/25 10:08:41;;;;;;;3.22;1.95;;;;;;;;;;4996314;28;20192;-87
2022/11/25 10:11:31;;;;;;;3.90;1.95;;;;;;;;;;4996732;28;20298;-88
2022/11/25 10:14:03;;;;;;;2.47;1.88;;;;;;;;;;4996966;28;20657;-87
2022/11/25 10:16:38;;;;;;;2.63;1.50;;;;;;;;;;4997358;28;20674;-87
2022/11/25 10:19:19;;;;;;;10.60;2.00;;;;;;;;;;4995845;28;20271;-88
2022/11/25 10:21:47;;;;;;;2.42;1.30;;;;;;;;;;4995491;28;20381;-88
2022/11/25 10:24:17;;;;;;;1.27;1.17;;;;;;;;;;4998509;28;20300;-87
2022/11/25 10:27:03;;;;;;;3.45;1.40;;;;;;;;;;5015195;28;20219;-88
2022/11/25 10:29:36;;;;;;;1.92;1.65;;;;;;;;;;4998833;28;20199;-88
2022/11/25 10:32:22;;;;;;;1.35;1.15;;;;;;;;;;4994982;28;20366;-87
2022/11/25 10:34:52;;;;;;;3.28;1.33;;;;;;;;;;4994312;28;20294;-88
2022/11/25 10:37:29;;;;;;;1.83;1.65;;;;;;;;;;4995223;28;20607;-88
2022/11/25 10:39:56;;;;;;;1.50;1.40;;;;;;;;;;4994646;28;20187;-88
2022/11/25 10:42:26;;;;;;;1.92;1.48;;;;;;;;;;4995122;28;20192;-88
2022/11/25 10:44:54;;;;;;;2.58;1.63;;;;;;;;;;4994894;28;20204;-87
2022/11/25 10:47:34;;;;;;;2.10;1.25;;;;;;;;;;4995380;28;20204;-87
2022/11/25 10:50:14;;;;;;;3.05;1.70;;;;;;;;;;4995159;28;20231;-87
2022/11/25 10:52:55;;;;;;;2.88;1.70;;;;;;;;;;4995175;28;20298;-87
2022/11/25 10:55:33;;;;;;;1.58;1.42;;;;;;;;;;5011939;28;20262;-87
2022/11/25 10:58:22;;;;;;;2.30;2.00;;;;;;;;;;5014241;28;20222;-87
2022/11/25 11:01:04;;;;;;;1.98;1.50;;;;;;;;;;5014651;28;20585;-87
2022/11/25 11:03:33;;;;;;;2.17;1.73;;;;;;;;;;5014508;28;20660;-87
2022/11/25 11:06:00;;;;;;;1.55;1.45;;;;;;;;;;5014322;28;20234;-87
2022/11/25 11:08:36;;;;;;;1.85;1.60;;;;;;;;;;5014518;28;20231;-87
2022/11/25 11:11:18;;;;;;;2.22;2.03;;;;;;;;;;5014559;28;20305;-87
2022/11/25 11:13:47;;;;;;;1.20;1.13;;;;;;;;;;5014063;28;20250;-87
2022/11/25 11:16:34;;;;;;;2.30;1.63;;;;;;;;;;5014551;28;20222;-87
2022/11/25 11:19:03;;;;;;;1.70;1.60;;;;;;;;;;5014644;28;20218;-87
2022/11/25 11:21:33;;;;;;;2.03;1.73;;;;;;;;;;5014018;28;20261;-88
2022/11/25 11:24:03;;;;;;;1.52;1.42;;;;;;;;;;5014182;28;20274;-87
2022/11/25 11:26:33;;;;;;;2.03;1.65;;;;;;;;;;5014506;28;20241;-87
2022/11/25 11:29:13;;;;;;;1.40;1.30;;;;;;;;;;5014591;28;20214;-87
2022/11/25 11:31:45;;;;;;;3.50;2.22;;;;;;;;;;5014107;28;20258;-87
2022/11/25 11:34:46;;;;;;;21.50;10.85;;;;;;;;;;5014343;28;20656;-87
2022/11/25 11:37:29;;;;;;;15.10;11.90;;;;;;;;;;5007602;28;20238;-87
2022/11/25 11:40:16;;;;;;;10.48;7.45;;;;;;;;;;5013909;28;20195;-87
2022/11/25 11:42:53;;;;;;;11.32;8.55;;;;;;;;;;5014264;28;20809;-87
2022/11/25 11:45:47;;;;;;;6.55;5.35;;;;;;;;;;5013846;28;20193;-88
2022/11/25 11:48:25;;;;;;;71.03;47.67;;;;;;;;;;5013761;28;20282;-87
2022/11/25 11:51:06;;;;;;;44.78;28.02;;;;;;;;;;5014074;28;20231;-87
2022/11/25 11:53:41;;;;;;;25.67;14.98;;;;;;;;;;5013660;28;20258;-87
2022/11/25 11:56:29;;;;;;;14.18;9.30;;;;;;;;;;5012870;28;20230;-86
2022/11/25 11:59:14;;;;;;;9.23;5.50;;;;;;;;;;5013459;28;20306;-88
2022/11/25 12:01:54;;;;;;;5.10;3.80;;;;;;;;;;5013549;28;20225;-88
2022/11/25 12:04:28;;;;;;;5.60;3.08;;;;;;;;;;5013299;28;20215;-88
2022/11/25 12:07:07;;;;;;;3.25;2.88;;;;;;;;;;5013068;28;20195;-87
2022/11/25 12:10:15;;;;;;;2.53;2.17;;;;;;;;;;5013385;28;20285;-88
2022/11/25 12:12:49;;;;;;;5.57;2.80;;;;;;;;;;5013252;28;20187;-88
2022/11/25 12:15:23;;;;;;;3.10;2.75;;;;;;;;;;5012958;28;20211;-88
2022/11/25 12:17:56;;;;;;;5.75;4.00;;;;;;;;;;5013627;28;20266;-88
2022/11/25 12:21:08;;;;;;;4.88;3.38;;;;;;;;;;5013163;28;20227;-88
2022/11/25 12:23:48;;;;;;;4.75;2.63;;;;;;;;;;5013375;28;20605;-88
2022/11/25 12:26:31;;;;;;;5.90;2.95;;;;;;;;;;5013134;28;20274;-88
2022/11/25 12:29:01;;;;;;;2.50;2.10;;;;;;;;;;5013051;28;20317;-88
2022/11/25 12:32:30;;;;;;;2.00;1.50;;;;;;;;;;5012940;28;20227;-88
2022/11/25 12:35:03;;;;;;;3.63;2.63;;;;;;;;;;5013182;28;20207;-88
2022/11/25 12:37:36;;;;;;;4.63;2.58;;;;;;;;;;5013161;28;20187;-88
2022/11/25 12:40:13;;;;;;;3.80;3.08;;;;;;;;;;5012970;28;20310;-88
2022/11/25 12:42:41;;;;;;;5.63;2.40;;;;;;;;;;5013146;28;20192;-88
2022/11/25 12:45:16;;;;;;;2.03;1.77;;;;;;;;;;5013337;28;20688;-88
2022/11/25 12:47:44;;;;;;;2.58;1.98;;;;;;;;;;5012985;28;20190;-88
2022/11/25 12:50:16;;;;;;;3.08;2.35;;;;;;;;;;5013361;28;20366;-88
2022/11/25 12:52:52;;;;;;;4.07;2.17;;;;;;;;;;5013366;28;20213;-89
2022/11/25 12:55:23;;;;;;;2.90;1.85;;;;;;;;;;5013057;28;20277;-88
2022/11/25 12:58:48;;;;;;;2.75;1.70;;;;;;;;;;5013440;28;20221;-88
2022/11/25 13:01:45;;;;;;;2.38;1.98;;;;;;;;;;5012955;28;20753;-88
2022/11/25 13:04:50;;;;;;;3.72;1.92;;;;;;;;;;5016467;28;20546;-89
2022/11/25 13:07:27;;;;;;;3.20;2.45;;;;;;;;;;4988580;28;20285;-88
2022/11/25 13:10:31;;;;;;;1.77;1.67;;;;;;;;;;5015483;28;20238;-88
2022/11/25 13:13:27;;;;;;;3.15;1.75;;;;;;;;;;5016407;28;20671;-89
2022/11/25 13:16:12;;;;;;;3.40;1.60;;;;;;;;;;5003606;28;20298;-88
2022/11/25 13:18:43;;;;;;;2.92;2.20;;;;;;;;;;4996634;28;20323;-90
2022/11/25 13:21:12;;;;;;;3.63;2.20;;;;;;;;;;4996288;28;20223;-88
2022/11/25 13:23:47;;;;;;;3.40;2.03;;;;;;;;;;4996606;28;20298;-88
2022/11/25 13:26:48;;;;;;;4.32;2.25;;;;;;;;;;4996635;28;20239;-88
2022/11/25 13:30:02;;;;;;;2.30;1.77;;;;;;;;;;4996391;28;20254;-88
2022/11/25 13:32:41;;;;;;;2.25;1.90;;;;;;;;;;4982637;28;20660;-89
2022/11/25 13:35:48;;;;;;;2.08;1.40;;;;;;;;;;5009519;28;20288;-88
2022/11/25 13:39:06;;;;;;;2.38;1.65;;;;;;;;;;5015810;28;20660;-89
2022/11/25 13:41:47;;;;;;;1.73;1.60;;;;;;;;;;5015423;28;20242;-88
2022/11/25 13:44:24;;;;;;;1.98;1.60;;;;;;;;;;5015817;28;20202;-88
2022/11/25 13:46:54;;;;;;;1.10;1.10;;;;;;;;;;5015775;28;20640;-88
2022/11/25 13:49:26;;;;;;;2.55;1.83;;;;;;;;;;4998018;28;20203;-88
2022/11/25 13:51:56;;;;;;;1.90;1.70;;;;;;;;;;4995960;28;20640;-87
2022/11/25 13:54:33;;;;;;;1.60;1.30;;;;;;;;;;4996110;28;20342;-88
2022/11/25 13:57:25;;;;;;;1.38;1.27;;;;;;;;;;4996138;28;20227;-88
2022/11/25 13:59:56;;;;;;;1.52;1.42;;;;;;;;;;4995728;28;20323;-88
2022/11/25 14:02:33;;;;;;;1.50;1.40;;;;;;;;;;4995778;28;20290;-88
2022/11/25 14:05:24;;;;;;;1.25;1.13;;;;;;;;;;5007970;28;20203;-88
2022/11/25 14:08:06;;;;;;;1.20;1.10;;;;;;;;;;5014986;28;20234;-88
2022/11/25 14:10:45;;;;;;;1.05;0.98;;;;;;;;;;5014033;28;20227;-88
2022/11/25 14:13:30;;;;;;;1.15;1.10;;;;;;;;;;5015069;28;20191;-88
2022/11/25 14:16:15;;;;;;;1.95;1.45;;;;;;;;;;5015305;28;20325;-88
2022/11/25 14:19:02;;;;;;;1.40;1.30;;;;;;;;;;5014963;28;20270;-89
2022/11/25 14:22:02;;;;;;;1.20;1.10;;;;;;;;;;5015041;28;20258;-88
2022/11/25 14:24:36;;;;;;;3.33;2.78;;;;;;;;;;5011466;28;20676;-88
2022/11/25 14:27:05;;;;;;;3.05;2.53;;;;;;;;;;5014839;28;20621;-88
2022/11/25 14:29:38;;;;;;;2.58;1.80;;;;;;;;;;5014442;28;20342;-87
2022/11/25 14:32:10;;;;;;;3.13;2.83;;;;;;;;;;5015078;28;20222;-88
2022/11/25 14:34:41;;;;;;;4.47;3.35;;;;;;;;;;5005790;28;20318;-88
2022/11/25 14:37:26;;;;;;;4.88;3.53;;;;;;;;;;4995302;28;20282;-89
2022/11/25 14:39:57;;;;;;;2.45;2.20;;;;;;;;;;4995896;28;20228;-88
2022/11/25 14:42:27;;;;;;;2.08;1.88;;;;;;;;;;4995444;28;20191;-89
2022/11/25 14:45:10;;;;;;;;;;;;;;;;;;;;;
2022/11/25 14:47:38;;;;;;;4.50;2.15;;;;;;;;;;4995404;28;20597;-88
2022/11/25 14:50:17;;;;;;;;;;;;;;;;;;;;;
2022/11/25 14:52:48;;;;;;;1.35;1.30;;;;;;;;;;4995426;28;20196;-88
2022/11/25 14:55:29;;;;;;;2.58;1.95;;;;;;;;;;4995174;28;20679;-88
2022/11/25 14:58:19;;;;;;;1.90;1.80;;;;;;;;;;4995759;28;20629;-89
2022/11/25 15:01:01;;;;;;;1.70;1.60;;;;;;;;;;4986887;28;20603;-89
2022/11/25 15:03:29;;;;;;;1.17;1.15;;;;;;;;;;4995939;28;20234;-89
2022/11/25 15:06:03;;;;;;;1.70;1.60;;;;;;;;;;4976155;28;20367;-89
2022/11/25 15:08:40;;;;;;;1.88;1.77;;;;;;;;;;4976139;28;20326;-89
2022/11/25 15:11:14;;;;;;;3.60;1.80;;;;;;;;;;4976472;28;20628;-89
2022/11/25 15:13:43;;;;;;;4.10;1.90;;;;;;;;;;4975487;28;20557;-89
2022/11/25 15:16:15;;;;;;;2.22;1.52;;;;;;;;;;4975001;28;20267;-89
2022/11/25 15:18:49;;;;;;;3.83;2.17;;;;;;;;;;4975075;28;20224;-88
2022/11/25 15:21:36;;;;;;;3.25;2.30;;;;;;;;;;4974530;28;20311;-88
2022/11/25 15:24:05;;;;;;;3.50;2.30;;;;;;;;;;4974703;28;20188;-88
2022/11/25 15:26:35;;;;;;;2.40;2.05;;;;;;;;;;4974455;28;20200;-89
2022/11/25 15:29:10;;;;;;;4.72;2.45;;;;;;;;;;4974802;28;20661;-89